sensor_id;sensor_type;location;lat;lon;timestamp;P1;durP1;ratioP1;P2;durP2;ratioP2
23782;SDS011;12071;50.850;4.446;2024-01-25T00:01:10;55.97;;;8.68;;
23782;SDS011;12071;50.850;4.446;2024-01-25T00:03:35;63.45;;;9.35;;
23782;SDS011;12071;50.850;4.446;2024-01-25T00:06:01;57.90;;;8.45;;
23782;SDS011;12071;50.850;4.446;2024-01-25T00:08:27;61.10;;;8.25;;
23782;SDS011;12071;50.850;4.446;2024-01-25T00:10:53;64.15;;;8.25;;
23782;SDS011;12071;50.850;4.446;2024-01-25T00:13:19;64.30;;;8.38;;
23782;SDS011;12071;50.850;4.446;2024-01-25T00:15:44;67.90;;;8.40;;
23782;SDS011;12071;50.850;4.446;2024-01-25T00:18:10;57.65;;;8.25;;
23782;SDS011;12071;50.850;4.446;2024-01-25T00:20:36;59.42;;;8.07;;
23782;SDS011;12071;50.850;4.446;2024-01-25T00:23:01;71.63;;;10.32;;
23782;SDS011;12071;50.850;4.446;2024-01-25T00:25:27;57.63;;;9.55;;
23782;SDS011;12071;50.850;4.446;2024-01-25T00:27:53;76.38;;;9.60;;
23782;SDS011;12071;50.850;4.446;2024-01-25T00:30:18;54.80;;;9.35;;
23782;SDS011;12071;50.850;4.446;2024-01-25T00:32:44;74.82;;;8.68;;
23782;SDS011;12071;50.850;4.446;2024-01-25T00:35:10;58.35;;;8.45;;
23782;SDS011;12071;50.850;4.446;2024-01-25T00:37:38;50.33;;;7.32;;
23782;SDS011;12071;50.850;4.446;2024-01-25T00:40:05;54.30;;;7.70;;
23782;SDS011;12071;50.850;4.446;2024-01-25T00:42:31;51.33;;;8.32;;
23782;SDS011;12071;50.850;4.446;2024-01-25T00:45:06;57.75;;;8.23;;
23782;SDS011;12071;50.850;4.446;2024-01-25T00:47:32;65.13;;;9.85;;
23782;SDS011;12071;50.850;4.446;2024-01-25T00:49:58;65.47;;;9.43;;
23782;SDS011;12071;50.850;4.446;2024-01-25T00:52:24;69.32;;;7.97;;
23782;SDS011;12071;50.850;4.446;2024-01-25T00:54:50;66.63;;;9.95;;
23782;SDS011;12071;50.850;4.446;2024-01-25T00:57:16;64.80;;;8.27;;
23782;SDS011;12071;50.850;4.446;2024-01-25T00:59:42;67.40;;;8.60;;
23782;SDS011;12071;50.850;4.446;2024-01-25T01:02:10;59.15;;;7.60;;
23782;SDS011;12071;50.850;4.446;2024-01-25T01:04:37;60.53;;;8.38;;
23782;SDS011;12071;50.850;4.446;2024-01-25T01:07:03;65.35;;;8.38;;
23782;SDS011;12071;50.850;4.446;2024-01-25T01:09:29;50.70;;;8.23;;
23782;SDS011;12071;50.850;4.446;2024-01-25T01:11:55;63.17;;;9.48;;
23782;SDS011;12071;50.850;4.446;2024-01-25T01:14:21;56.63;;;8.77;;
23782;SDS011;12071;50.850;4.446;2024-01-25T01:16:47;56.47;;;8.27;;
23782;SDS011;12071;50.850;4.446;2024-01-25T01:19:12;45.55;;;7.20;;
23782;SDS011;12071;50.850;4.446;2024-01-25T01:21:38;64.38;;;8.70;;
23782;SDS011;12071;50.850;4.446;2024-01-25T01:24:06;53.60;;;8.90;;
23782;SDS011;12071;50.850;4.446;2024-01-25T01:26:32;57.63;;;8.25;;
23782;SDS011;12071;50.850;4.446;2024-01-25T01:28:57;58.13;;;7.90;;
23782;SDS011;12071;50.850;4.446;2024-01-25T01:31:23;47.65;;;8.02;;
23782;SDS011;12071;50.850;4.446;2024-01-25T01:33:49;69.10;;;9.68;;
23782;SDS011;12071;50.850;4.446;2024-01-25T01:36:14;63.35;;;9.18;;
23782;SDS011;12071;50.850;4.446;2024-01-25T01:38:40;70.93;;;9.80;;
23782;SDS011;12071;50.850;4.446;2024-01-25T01:41:06;69.85;;;8.68;;
23782;SDS011;12071;50.850;4.446;2024-01-25T01:43:31;74.55;;;9.52;;
23782;SDS011;12071;50.850;4.446;2024-01-25T01:46:00;65.32;;;8.45;;
23782;SDS011;12071;50.850;4.446;2024-01-25T01:48:29;60.05;;;8.93;;
23782;SDS011;12071;50.850;4.446;2024-01-25T01:50:55;64.22;;;8.57;;
23782;SDS011;12071;50.850;4.446;2024-01-25T01:53:21;66.93;;;8.88;;
23782;SDS011;12071;50.850;4.446;2024-01-25T01:55:47;53.28;;;8.77;;
23782;SDS011;12071;50.850;4.446;2024-01-25T01:58:13;49.60;;;8.60;;
23782;SDS011;12071;50.850;4.446;2024-01-25T02:00:39;64.82;;;9.20;;
23782;SDS011;12071;50.850;4.446;2024-01-25T02:03:07;55.95;;;7.32;;
23782;SDS011;12071;50.850;4.446;2024-01-25T02:05:33;54.53;;;9.32;;
23782;SDS011;12071;50.850;4.446;2024-01-25T02:07:59;60.47;;;7.97;;
23782;SDS011;12071;50.850;4.446;2024-01-25T02:10:25;62.38;;;8.15;;
23782;SDS011;12071;50.850;4.446;2024-01-25T02:12:50;67.57;;;9.02;;
23782;SDS011;12071;50.850;4.446;2024-01-25T02:15:16;61.70;;;8.90;;
23782;SDS011;12071;50.850;4.446;2024-01-25T02:17:42;61.38;;;8.70;;
23782;SDS011;12071;50.850;4.446;2024-01-25T02:20:08;52.47;;;8.30;;
23782;SDS011;12071;50.850;4.446;2024-01-25T02:22:34;57.10;;;7.50;;
23782;SDS011;12071;50.850;4.446;2024-01-25T02:24:59;63.53;;;8.50;;
23782;SDS011;12071;50.850;4.446;2024-01-25T02:27:25;86.63;;;8.88;;
23782;SDS011;12071;50.850;4.446;2024-01-25T02:29:50;61.55;;;9.55;;
23782;SDS011;12071;50.850;4.446;2024-01-25T02:32:16;59.65;;;8.00;;
23782;SDS011;12071;50.850;4.446;2024-01-25T02:34:42;70.88;;;9.57;;
23782;SDS011;12071;50.850;4.446;2024-01-25T02:37:07;71.15;;;9.52;;
23782;SDS011;12071;50.850;4.446;2024-01-25T02:39:33;58.80;;;7.75;;
23782;SDS011;12071;50.850;4.446;2024-01-25T02:41:59;63.75;;;7.90;;
23782;SDS011;12071;50.850;4.446;2024-01-25T02:44:25;58.10;;;7.55;;
23782;SDS011;12071;50.850;4.446;2024-01-25T02:46:50;65.38;;;8.43;;
23782;SDS011;12071;50.850;4.446;2024-01-25T02:49:16;55.83;;;7.43;;
23782;SDS011;12071;50.850;4.446;2024-01-25T02:51:42;63.30;;;8.63;;
23782;SDS011;12071;50.850;4.446;2024-01-25T02:54:08;55.80;;;7.90;;
23782;SDS011;12071;50.850;4.446;2024-01-25T02:56:34;68.38;;;7.82;;
23782;SDS011;12071;50.850;4.446;2024-01-25T02:59:03;49.88;;;7.13;;
23782;SDS011;12071;50.850;4.446;2024-01-25T03:01:36;59.67;;;8.30;;
23782;SDS011;12071;50.850;4.446;2024-01-25T03:04:03;58.53;;;7.20;;
23782;SDS011;12071;50.850;4.446;2024-01-25T03:06:29;62.97;;;8.27;;
23782;SDS011;12071;50.850;4.446;2024-01-25T03:08:54;54.72;;;8.23;;
23782;SDS011;12071;50.850;4.446;2024-01-25T03:11:20;71.00;;;8.07;;
23782;SDS011;12071;50.850;4.446;2024-01-25T03:13:45;59.50;;;7.97;;
23782;SDS011;12071;50.850;4.446;2024-01-25T03:16:11;57.05;;;7.20;;
23782;SDS011;12071;50.850;4.446;2024-01-25T03:18:37;59.53;;;7.70;;
23782;SDS011;12071;50.850;4.446;2024-01-25T03:21:02;66.07;;;9.50;;
23782;SDS011;12071;50.850;4.446;2024-01-25T03:23:28;63.95;;;8.07;;
23782;SDS011;12071;50.850;4.446;2024-01-25T03:25:54;52.03;;;7.63;;
23782;SDS011;12071;50.850;4.446;2024-01-25T03:28:19;57.63;;;7.93;;
23782;SDS011;12071;50.850;4.446;2024-01-25T03:30:45;67.07;;;8.20;;
23782;SDS011;12071;50.850;4.446;2024-01-25T03:33:11;74.47;;;9.32;;
23782;SDS011;12071;50.850;4.446;2024-01-25T03:35:36;69.38;;;8.77;;
23782;SDS011;12071;50.850;4.446;2024-01-25T03:38:02;63.95;;;8.25;;
23782;SDS011;12071;50.850;4.446;2024-01-25T03:40:28;62.00;;;8.38;;
23782;SDS011;12071;50.850;4.446;2024-01-25T03:42:53;70.53;;;9.02;;
23782;SDS011;12071;50.850;4.446;2024-01-25T03:45:19;75.40;;;8.85;;
23782;SDS011;12071;50.850;4.446;2024-01-25T03:47:45;67.22;;;8.93;;
23782;SDS011;12071;50.850;4.446;2024-01-25T03:50:10;64.90;;;7.88;;
23782;SDS011;12071;50.850;4.446;2024-01-25T03:52:36;73.55;;;9.18;;
23782;SDS011;12071;50.850;4.446;2024-01-25T03:55:02;68.55;;;8.30;;
23782;SDS011;12071;50.850;4.446;2024-01-25T03:57:28;68.55;;;8.77;;
23782;SDS011;12071;50.850;4.446;2024-01-25T03:59:53;81.10;;;8.88;;
23782;SDS011;12071;50.850;4.446;2024-01-25T04:02:19;57.40;;;7.85;;
23782;SDS011;12071;50.850;4.446;2024-01-25T04:04:45;58.85;;;8.18;;
23782;SDS011;12071;50.850;4.446;2024-01-25T04:07:10;64.63;;;8.38;;
23782;SDS011;12071;50.850;4.446;2024-01-25T04:09:36;65.55;;;8.38;;
23782;SDS011;12071;50.850;4.446;2024-01-25T04:12:02;64.10;;;7.43;;
23782;SDS011;12071;50.850;4.446;2024-01-25T04:14:28;65.35;;;8.88;;
23782;SDS011;12071;50.850;4.446;2024-01-25T04:16:53;64.30;;;8.43;;
23782;SDS011;12071;50.850;4.446;2024-01-25T04:19:19;55.72;;;7.55;;
23782;SDS011;12071;50.850;4.446;2024-01-25T04:21:45;73.97;;;9.50;;
23782;SDS011;12071;50.850;4.446;2024-01-25T04:24:10;60.15;;;7.55;;
23782;SDS011;12071;50.850;4.446;2024-01-25T04:26:36;58.28;;;8.10;;
23782;SDS011;12071;50.850;4.446;2024-01-25T04:29:01;63.85;;;7.57;;
23782;SDS011;12071;50.850;4.446;2024-01-25T04:31:27;52.58;;;6.70;;
23782;SDS011;12071;50.850;4.446;2024-01-25T04:33:53;55.33;;;7.40;;
23782;SDS011;12071;50.850;4.446;2024-01-25T04:36:18;59.22;;;6.90;;
23782;SDS011;12071;50.850;4.446;2024-01-25T04:38:44;58.15;;;7.50;;
23782;SDS011;12071;50.850;4.446;2024-01-25T04:41:09;75.07;;;10.15;;
23782;SDS011;12071;50.850;4.446;2024-01-25T04:43:35;58.03;;;7.43;;
23782;SDS011;12071;50.850;4.446;2024-01-25T04:46:01;59.45;;;7.93;;
23782;SDS011;12071;50.850;4.446;2024-01-25T04:48:28;58.83;;;7.60;;
23782;SDS011;12071;50.850;4.446;2024-01-25T04:50:55;65.47;;;6.95;;
23782;SDS011;12071;50.850;4.446;2024-01-25T04:53:22;59.25;;;7.50;;
23782;SDS011;12071;50.850;4.446;2024-01-25T04:55:47;53.05;;;8.23;;
23782;SDS011;12071;50.850;4.446;2024-01-25T04:58:13;55.30;;;6.82;;
23782;SDS011;12071;50.850;4.446;2024-01-25T05:00:39;64.35;;;7.60;;
23782;SDS011;12071;50.850;4.446;2024-01-25T05:03:05;56.92;;;8.48;;
23782;SDS011;12071;50.850;4.446;2024-01-25T05:05:30;55.65;;;7.72;;
23782;SDS011;12071;50.850;4.446;2024-01-25T05:07:56;56.47;;;6.70;;
23782;SDS011;12071;50.850;4.446;2024-01-25T05:10:22;72.35;;;8.77;;
23782;SDS011;12071;50.850;4.446;2024-01-25T05:12:48;58.80;;;10.55;;
23782;SDS011;12071;50.850;4.446;2024-01-25T05:15:14;67.80;;;10.27;;
23782;SDS011;12071;50.850;4.446;2024-01-25T05:17:39;65.25;;;9.20;;
23782;SDS011;12071;50.850;4.446;2024-01-25T05:20:05;68.30;;;10.35;;
23782;SDS011;12071;50.850;4.446;2024-01-25T05:22:31;63.95;;;8.50;;
23782;SDS011;12071;50.850;4.446;2024-01-25T05:24:57;46.10;;;7.38;;
23782;SDS011;12071;50.850;4.446;2024-01-25T05:27:23;58.78;;;8.00;;
23782;SDS011;12071;50.850;4.446;2024-01-25T05:29:49;50.65;;;8.25;;
23782;SDS011;12071;50.850;4.446;2024-01-25T05:32:14;60.33;;;7.55;;
23782;SDS011;12071;50.850;4.446;2024-01-25T05:34:40;70.05;;;9.18;;
23782;SDS011;12071;50.850;4.446;2024-01-25T05:37:06;61.80;;;9.30;;
23782;SDS011;12071;50.850;4.446;2024-01-25T05:39:32;63.40;;;7.35;;
23782;SDS011;12071;50.850;4.446;2024-01-25T05:41:58;59.35;;;8.93;;
23782;SDS011;12071;50.850;4.446;2024-01-25T05:44:23;56.00;;;8.00;;
23782;SDS011;12071;50.850;4.446;2024-01-25T05:46:49;72.82;;;7.80;;
23782;SDS011;12071;50.850;4.446;2024-01-25T05:49:15;54.65;;;7.80;;
23782;SDS011;12071;50.850;4.446;2024-01-25T05:51:40;55.65;;;7.68;;
23782;SDS011;12071;50.850;4.446;2024-01-25T05:54:06;70.30;;;8.40;;
23782;SDS011;12071;50.850;4.446;2024-01-25T05:56:32;60.17;;;7.20;;
23782;SDS011;12071;50.850;4.446;2024-01-25T05:58:57;63.97;;;7.93;;
23782;SDS011;12071;50.850;4.446;2024-01-25T06:01:23;56.30;;;7.53;;
23782;SDS011;12071;50.850;4.446;2024-01-25T06:03:48;59.20;;;7.38;;
23782;SDS011;12071;50.850;4.446;2024-01-25T06:06:14;69.05;;;8.05;;
23782;SDS011;12071;50.850;4.446;2024-01-25T06:08:40;56.53;;;7.85;;
23782;SDS011;12071;50.850;4.446;2024-01-25T06:11:05;57.42;;;7.13;;
23782;SDS011;12071;50.850;4.446;2024-01-25T06:13:31;84.88;;;8.85;;
23782;SDS011;12071;50.850;4.446;2024-01-25T06:15:57;64.43;;;9.18;;
23782;SDS011;12071;50.850;4.446;2024-01-25T06:18:23;64.80;;;7.65;;
23782;SDS011;12071;50.850;4.446;2024-01-25T06:20:48;53.50;;;8.20;;
23782;SDS011;12071;50.850;4.446;2024-01-25T06:23:15;52.38;;;7.90;;
23782;SDS011;12071;50.850;4.446;2024-01-25T06:25:41;70.28;;;8.40;;
23782;SDS011;12071;50.850;4.446;2024-01-25T06:28:06;59.53;;;7.78;;
23782;SDS011;12071;50.850;4.446;2024-01-25T06:30:32;69.22;;;8.05;;
23782;SDS011;12071;50.850;4.446;2024-01-25T06:32:57;59.67;;;8.30;;
23782;SDS011;12071;50.850;4.446;2024-01-25T06:35:23;69.93;;;9.18;;
23782;SDS011;12071;50.850;4.446;2024-01-25T06:37:48;53.40;;;7.85;;
23782;SDS011;12071;50.850;4.446;2024-01-25T06:40:14;60.38;;;7.97;;
23782;SDS011;12071;50.850;4.446;2024-01-25T06:42:40;58.35;;;8.50;;
23782;SDS011;12071;50.850;4.446;2024-01-25T06:45:07;54.50;;;7.90;;
23782;SDS011;12071;50.850;4.446;2024-01-25T06:47:34;62.38;;;8.02;;
23782;SDS011;12071;50.850;4.446;2024-01-25T06:49:59;71.05;;;8.85;;
23782;SDS011;12071;50.850;4.446;2024-01-25T06:52:25;73.32;;;9.25;;
23782;SDS011;12071;50.850;4.446;2024-01-25T06:54:51;72.70;;;8.52;;
23782;SDS011;12071;50.850;4.446;2024-01-25T06:57:17;61.15;;;8.63;;
23782;SDS011;12071;50.850;4.446;2024-01-25T06:59:42;76.85;;;9.23;;
23782;SDS011;12071;50.850;4.446;2024-01-25T07:02:08;71.03;;;8.90;;
23782;SDS011;12071;50.850;4.446;2024-01-25T07:04:34;68.05;;;9.05;;
23782;SDS011;12071;50.850;4.446;2024-01-25T07:06:59;69.88;;;8.80;;
23782;SDS011;12071;50.850;4.446;2024-01-25T07:09:25;68.50;;;9.75;;
23782;SDS011;12071;50.850;4.446;2024-01-25T07:11:51;75.53;;;10.02;;
23782;SDS011;12071;50.850;4.446;2024-01-25T07:14:16;73.85;;;10.10;;
23782;SDS011;12071;50.850;4.446;2024-01-25T07:16:42;61.58;;;9.75;;
23782;SDS011;12071;50.850;4.446;2024-01-25T07:19:08;65.78;;;9.70;;
23782;SDS011;12071;50.850;4.446;2024-01-25T07:21:33;72.13;;;10.55;;
23782;SDS011;12071;50.850;4.446;2024-01-25T07:24:00;82.97;;;11.80;;
23782;SDS011;12071;50.850;4.446;2024-01-25T07:26:27;75.38;;;11.57;;
23782;SDS011;12071;50.850;4.446;2024-01-25T07:28:53;93.88;;;13.32;;
23782;SDS011;12071;50.850;4.446;2024-01-25T07:31:23;106.03;;;14.13;;
23782;SDS011;12071;50.850;4.446;2024-01-25T07:33:52;79.63;;;14.93;;
23782;SDS011;12071;50.850;4.446;2024-01-25T07:36:18;98.47;;;17.10;;
23782;SDS011;12071;50.850;4.446;2024-01-25T07:38:44;94.75;;;16.42;;
23782;SDS011;12071;50.850;4.446;2024-01-25T07:41:12;121.90;;;18.88;;
23782;SDS011;12071;50.850;4.446;2024-01-25T07:43:38;106.97;;;18.15;;
23782;SDS011;12071;50.850;4.446;2024-01-25T07:46:03;94.97;;;17.52;;
23782;SDS011;12071;50.850;4.446;2024-01-25T07:48:29;94.57;;;16.70;;
23782;SDS011;12071;50.850;4.446;2024-01-25T07:50:56;97.82;;;17.65;;
23782;SDS011;12071;50.850;4.446;2024-01-25T07:53:22;91.28;;;17.02;;
23782;SDS011;12071;50.850;4.446;2024-01-25T07:55:48;86.20;;;16.33;;
23782;SDS011;12071;50.850;4.446;2024-01-25T07:58:17;70.68;;;16.83;;
23782;SDS011;12071;50.850;4.446;2024-01-25T08:00:42;68.43;;;17.30;;
23782;SDS011;12071;50.850;4.446;2024-01-25T08:03:09;76.38;;;18.00;;
23782;SDS011;12071;50.850;4.446;2024-01-25T08:05:36;76.13;;;17.08;;
23782;SDS011;12071;50.850;4.446;2024-01-25T08:08:01;78.03;;;17.98;;
23782;SDS011;12071;50.850;4.446;2024-01-25T08:10:27;75.28;;;20.42;;
23782;SDS011;12071;50.850;4.446;2024-01-25T08:12:53;68.63;;;17.40;;
23782;SDS011;12071;50.850;4.446;2024-01-25T08:15:18;75.45;;;17.27;;
23782;SDS011;12071;50.850;4.446;2024-01-25T08:17:44;79.15;;;16.83;;
23782;SDS011;12071;50.850;4.446;2024-01-25T08:20:10;83.47;;;18.20;;
23782;SDS011;12071;50.850;4.446;2024-01-25T08:22:38;64.53;;;17.17;;
23782;SDS011;12071;50.850;4.446;2024-01-25T08:25:05;67.30;;;17.75;;
23782;SDS011;12071;50.850;4.446;2024-01-25T08:27:31;102.82;;;18.67;;
23782;SDS011;12071;50.850;4.446;2024-01-25T08:29:57;65.50;;;16.30;;
23782;SDS011;12071;50.850;4.446;2024-01-25T08:32:22;75.47;;;18.25;;
23782;SDS011;12071;50.850;4.446;2024-01-25T08:34:48;75.55;;;17.50;;
23782;SDS011;12071;50.850;4.446;2024-01-25T08:37:13;73.93;;;17.05;;
23782;SDS011;12071;50.850;4.446;2024-01-25T08:39:39;66.18;;;17.15;;
23782;SDS011;12071;50.850;4.446;2024-01-25T08:42:05;59.72;;;17.05;;
23782;SDS011;12071;50.850;4.446;2024-01-25T08:44:31;74.93;;;17.80;;
23782;SDS011;12071;50.850;4.446;2024-01-25T08:46:57;65.47;;;16.98;;
23782;SDS011;12071;50.850;4.446;2024-01-25T08:49:23;68.40;;;17.77;;
23782;SDS011;12071;50.850;4.446;2024-01-25T08:51:48;77.25;;;17.85;;
23782;SDS011;12071;50.850;4.446;2024-01-25T08:54:15;53.85;;;17.30;;
23782;SDS011;12071;50.850;4.446;2024-01-25T08:56:41;66.05;;;18.60;;
23782;SDS011;12071;50.850;4.446;2024-01-25T08:59:06;64.20;;;18.13;;
23782;SDS011;12071;50.850;4.446;2024-01-25T09:01:32;67.10;;;18.98;;
23782;SDS011;12071;50.850;4.446;2024-01-25T09:03:58;62.65;;;18.23;;
23782;SDS011;12071;50.850;4.446;2024-01-25T09:06:28;66.57;;;18.83;;
23782;SDS011;12071;50.850;4.446;2024-01-25T09:08:54;63.33;;;17.88;;
23782;SDS011;12071;50.850;4.446;2024-01-25T09:11:20;60.88;;;17.90;;
23782;SDS011;12071;50.850;4.446;2024-01-25T09:13:46;76.18;;;19.05;;
23782;SDS011;12071;50.850;4.446;2024-01-25T09:16:13;66.72;;;18.73;;
23782;SDS011;12071;50.850;4.446;2024-01-25T09:18:39;77.03;;;19.83;;
23782;SDS011;12071;50.850;4.446;2024-01-25T09:21:04;75.20;;;20.40;;
23782;SDS011;12071;50.850;4.446;2024-01-25T09:23:30;79.20;;;19.80;;
23782;SDS011;12071;50.850;4.446;2024-01-25T09:25:56;82.90;;;19.77;;
23782;SDS011;12071;50.850;4.446;2024-01-25T09:28:21;95.78;;;22.02;;
23782;SDS011;12071;50.850;4.446;2024-01-25T09:30:47;91.53;;;21.40;;
23782;SDS011;12071;50.850;4.446;2024-01-25T09:33:13;91.55;;;22.05;;
23782;SDS011;12071;50.850;4.446;2024-01-25T09:35:39;87.07;;;21.98;;
23782;SDS011;12071;50.850;4.446;2024-01-25T09:38:05;90.10;;;24.13;;
23782;SDS011;12071;50.850;4.446;2024-01-25T09:40:31;84.80;;;22.73;;
23782;SDS011;12071;50.850;4.446;2024-01-25T09:42:58;86.78;;;23.17;;
23782;SDS011;12071;50.850;4.446;2024-01-25T09:45:24;90.20;;;22.30;;
23782;SDS011;12071;50.850;4.446;2024-01-25T09:47:50;83.38;;;22.92;;
23782;SDS011;12071;50.850;4.446;2024-01-25T09:50:16;82.65;;;24.25;;
23782;SDS011;12071;50.850;4.446;2024-01-25T09:52:44;81.13;;;21.42;;
23782;SDS011;12071;50.850;4.446;2024-01-25T09:55:19;97.65;;;23.80;;
23782;SDS011;12071;50.850;4.446;2024-01-25T09:57:49;85.07;;;21.50;;
23782;SDS011;12071;50.850;4.446;2024-01-25T10:00:22;83.95;;;22.92;;
23782;SDS011;12071;50.850;4.446;2024-01-25T10:02:48;86.85;;;22.23;;
23782;SDS011;12071;50.850;4.446;2024-01-25T10:05:15;82.75;;;20.83;;
23782;SDS011;12071;50.850;4.446;2024-01-25T10:07:42;81.38;;;21.90;;
23782;SDS011;12071;50.850;4.446;2024-01-25T10:10:09;85.45;;;20.15;;
23782;SDS011;12071;50.850;4.446;2024-01-25T10:12:36;77.30;;;19.65;;
23782;SDS011;12071;50.850;4.446;2024-01-25T10:15:06;67.40;;;19.53;;
23782;SDS011;12071;50.850;4.446;2024-01-25T10:17:32;65.05;;;19.30;;
23782;SDS011;12071;50.850;4.446;2024-01-25T10:19:58;72.68;;;18.73;;
23782;SDS011;12071;50.850;4.446;2024-01-25T10:22:24;66.85;;;18.45;;
23782;SDS011;12071;50.850;4.446;2024-01-25T10:24:50;66.97;;;18.23;;
23782;SDS011;12071;50.850;4.446;2024-01-25T10:27:16;61.38;;;17.35;;
23782;SDS011;12071;50.850;4.446;2024-01-25T10:29:42;57.55;;;15.93;;
23782;SDS011;12071;50.850;4.446;2024-01-25T10:32:08;48.30;;;15.63;;
23782;SDS011;12071;50.850;4.446;2024-01-25T10:34:37;47.40;;;14.15;;
23782;SDS011;12071;50.850;4.446;2024-01-25T10:37:06;47.25;;;14.98;;
23782;SDS011;12071;50.850;4.446;2024-01-25T10:39:32;51.58;;;14.85;;
23782;SDS011;12071;50.850;4.446;2024-01-25T10:41:59;47.20;;;14.35;;
23782;SDS011;12071;50.850;4.446;2024-01-25T10:44:25;48.25;;;13.48;;
23782;SDS011;12071;50.850;4.446;2024-01-25T10:46:51;48.50;;;13.10;;
23782;SDS011;12071;50.850;4.446;2024-01-25T10:49:19;43.47;;;13.32;;
23782;SDS011;12071;50.850;4.446;2024-01-25T10:51:46;44.40;;;13.20;;
23782;SDS011;12071;50.850;4.446;2024-01-25T10:54:13;37.03;;;12.55;;
23782;SDS011;12071;50.850;4.446;2024-01-25T10:56:42;41.20;;;13.25;;
23782;SDS011;12071;50.850;4.446;2024-01-25T10:59:10;46.15;;;13.18;;
23782;SDS011;12071;50.850;4.446;2024-01-25T11:01:36;45.53;;;12.93;;
23782;SDS011;12071;50.850;4.446;2024-01-25T11:04:02;39.00;;;12.10;;
23782;SDS011;12071;50.850;4.446;2024-01-25T11:06:36;43.20;;;13.32;;
23782;SDS011;12071;50.850;4.446;2024-01-25T11:09:05;43.47;;;12.32;;
23782;SDS011;12071;50.850;4.446;2024-01-25T11:11:31;39.72;;;12.10;;
23782;SDS011;12071;50.850;4.446;2024-01-25T11:13:58;43.47;;;11.88;;
23782;SDS011;12071;50.850;4.446;2024-01-25T11:16:28;40.50;;;12.27;;
23782;SDS011;12071;50.850;4.446;2024-01-25T11:18:56;33.72;;;11.23;;
23782;SDS011;12071;50.850;4.446;2024-01-25T11:21:41;35.28;;;10.90;;
23782;SDS011;12071;50.850;4.446;2024-01-25T11:26:53;35.85;;;10.13;;
23782;SDS011;12071;50.850;4.446;2024-01-25T11:29:20;40.75;;;10.73;;
23782;SDS011;12071;50.850;4.446;2024-01-25T11:31:49;38.03;;;9.52;;
23782;SDS011;12071;50.850;4.446;2024-01-25T11:34:15;41.85;;;11.23;;
23782;SDS011;12071;50.850;4.446;2024-01-25T11:36:43;38.45;;;10.82;;
23782;SDS011;12071;50.850;4.446;2024-01-25T11:39:09;41.55;;;11.00;;
23782;SDS011;12071;50.850;4.446;2024-01-25T11:41:36;35.92;;;10.95;;
23782;SDS011;12071;50.850;4.446;2024-01-25T11:44:02;34.53;;;10.85;;
23782;SDS011;12071;50.850;4.446;2024-01-25T11:46:31;39.75;;;11.25;;
23782;SDS011;12071;50.850;4.446;2024-01-25T11:48:59;40.42;;;10.48;;
23782;SDS011;12071;50.850;4.446;2024-01-25T11:51:25;33.70;;;10.57;;
23782;SDS011;12071;50.850;4.446;2024-01-25T11:53:51;47.35;;;12.25;;
23782;SDS011;12071;50.850;4.446;2024-01-25T11:56:19;39.53;;;10.93;;
23782;SDS011;12071;50.850;4.446;2024-01-25T11:58:48;39.58;;;11.60;;
23782;SDS011;12071;50.850;4.446;2024-01-25T12:01:14;47.15;;;12.50;;
23782;SDS011;12071;50.850;4.446;2024-01-25T12:03:41;36.75;;;12.07;;
23782;SDS011;12071;50.850;4.446;2024-01-25T12:06:06;40.85;;;11.65;;
23782;SDS011;12071;50.850;4.446;2024-01-25T12:08:35;37.92;;;12.25;;
23782;SDS011;12071;50.850;4.446;2024-01-25T12:13:39;39.63;;;12.63;;
23782;SDS011;12071;50.850;4.446;2024-01-25T12:16:06;42.03;;;13.18;;
23782;SDS011;12071;50.850;4.446;2024-01-25T12:18:32;42.22;;;14.00;;
23782;SDS011;12071;50.850;4.446;2024-01-25T12:21:00;37.38;;;14.05;;
23782;SDS011;12071;50.850;4.446;2024-01-25T12:23:30;35.28;;;13.13;;
23782;SDS011;12071;50.850;4.446;2024-01-25T12:25:58;41.00;;;12.43;;
23782;SDS011;12071;50.850;4.446;2024-01-25T12:28:26;36.17;;;12.18;;
23782;SDS011;12071;50.850;4.446;2024-01-25T12:30:53;34.15;;;11.98;;
23782;SDS011;12071;50.850;4.446;2024-01-25T12:33:19;41.97;;;12.38;;
23782;SDS011;12071;50.850;4.446;2024-01-25T12:35:44;37.53;;;10.85;;
23782;SDS011;12071;50.850;4.446;2024-01-25T12:38:10;32.05;;;11.05;;
23782;SDS011;12071;50.850;4.446;2024-01-25T12:40:35;36.92;;;11.57;;
23782;SDS011;12071;50.850;4.446;2024-01-25T12:43:01;38.53;;;11.57;;
23782;SDS011;12071;50.850;4.446;2024-01-25T12:45:27;33.40;;;10.60;;
23782;SDS011;12071;50.850;4.446;2024-01-25T12:47:52;27.25;;;10.13;;
23782;SDS011;12071;50.850;4.446;2024-01-25T12:50:18;31.52;;;10.38;;
23782;SDS011;12071;50.850;4.446;2024-01-25T12:52:44;31.38;;;10.38;;
23782;SDS011;12071;50.850;4.446;2024-01-25T12:55:10;29.00;;;10.43;;
23782;SDS011;12071;50.850;4.446;2024-01-25T12:57:36;26.55;;;10.10;;
23782;SDS011;12071;50.850;4.446;2024-01-25T13:00:02;31.50;;;10.70;;
23782;SDS011;12071;50.850;4.446;2024-01-25T13:02:28;30.80;;;10.55;;
23782;SDS011;12071;50.850;4.446;2024-01-25T13:04:54;27.23;;;11.32;;
23782;SDS011;12071;50.850;4.446;2024-01-25T13:07:19;27.35;;;10.93;;
23782;SDS011;12071;50.850;4.446;2024-01-25T13:09:45;30.13;;;10.20;;
23782;SDS011;12071;50.850;4.446;2024-01-25T13:12:11;32.10;;;10.13;;
23782;SDS011;12071;50.850;4.446;2024-01-25T13:14:36;32.63;;;10.23;;
23782;SDS011;12071;50.850;4.446;2024-01-25T13:17:02;25.65;;;10.15;;
23782;SDS011;12071;50.850;4.446;2024-01-25T13:19:28;24.90;;;8.95;;
23782;SDS011;12071;50.850;4.446;2024-01-25T13:21:53;21.25;;;8.60;;
23782;SDS011;12071;50.850;4.446;2024-01-25T13:24:19;21.13;;;8.23;;
23782;SDS011;12071;50.850;4.446;2024-01-25T13:26:44;26.25;;;8.88;;
23782;SDS011;12071;50.850;4.446;2024-01-25T13:29:10;19.98;;;8.20;;
23782;SDS011;12071;50.850;4.446;2024-01-25T13:31:38;18.20;;;8.02;;
23782;SDS011;12071;50.850;4.446;2024-01-25T13:34:04;17.60;;;7.15;;
23782;SDS011;12071;50.850;4.446;2024-01-25T13:36:30;16.88;;;6.97;;
23782;SDS011;12071;50.850;4.446;2024-01-25T13:38:56;11.38;;;7.22;;
23782;SDS011;12071;50.850;4.446;2024-01-25T13:41:21;16.83;;;7.00;;
23782;SDS011;12071;50.850;4.446;2024-01-25T13:43:47;15.68;;;7.03;;
23782;SDS011;12071;50.850;4.446;2024-01-25T13:46:12;12.63;;;6.82;;
23782;SDS011;12071;50.850;4.446;2024-01-25T13:48:38;16.88;;;7.15;;
23782;SDS011;12071;50.850;4.446;2024-01-25T13:51:03;14.63;;;7.53;;
23782;SDS011;12071;50.850;4.446;2024-01-25T13:53:29;12.73;;;7.32;;
23782;SDS011;12071;50.850;4.446;2024-01-25T13:55:55;16.33;;;7.93;;
23782;SDS011;12071;50.850;4.446;2024-01-25T13:58:20;13.75;;;8.20;;
23782;SDS011;12071;50.850;4.446;2024-01-25T14:00:46;19.17;;;9.10;;
23782;SDS011;12071;50.850;4.446;2024-01-25T14:03:12;16.73;;;8.63;;
23782;SDS011;12071;50.850;4.446;2024-01-25T14:05:39;13.40;;;9.32;;
23782;SDS011;12071;50.850;4.446;2024-01-25T14:08:05;15.80;;;9.88;;
23782;SDS011;12071;50.850;4.446;2024-01-25T14:10:31;18.83;;;11.15;;
23782;SDS011;12071;50.850;4.446;2024-01-25T14:12:59;18.98;;;11.40;;
23782;SDS011;12071;50.850;4.446;2024-01-25T14:15:25;16.52;;;11.10;;
23782;SDS011;12071;50.850;4.446;2024-01-25T14:17:51;17.40;;;10.48;;
23782;SDS011;12071;50.850;4.446;2024-01-25T14:20:16;14.90;;;10.98;;
23782;SDS011;12071;50.850;4.446;2024-01-25T14:22:43;19.67;;;11.18;;
23782;SDS011;12071;50.850;4.446;2024-01-25T14:25:09;17.92;;;10.90;;
23782;SDS011;12071;50.850;4.446;2024-01-25T14:27:35;18.67;;;10.82;;